createdAt,value
2022-08-09T00:01:42.825Z,19.10
2022-08-09T00:04:35.165Z,19.43
2022-08-09T00:07:07.745Z,19.57
2022-08-09T00:09:39.202Z,19.70
2022-08-09T00:12:22.542Z,19.78
2022-08-09T00:15:06.939Z,19.74
2022-08-09T00:18:05.260Z,19.73
2022-08-09T00:20:22.990Z,19.85
2022-08-09T00:22:50.388Z,19.91
2022-08-09T00:25:23.503Z,19.77
2022-08-09T00:28:00.486Z,19.84
2022-08-09T00:30:31.090Z,19.85
2022-08-09T00:32:58.032Z,19.84
2022-08-09T00:35:26.479Z,19.61
2022-08-09T00:37:56.867Z,19.67
2022-08-09T00:40:30.361Z,19.70
2022-08-09T00:44:16.858Z,19.76
2022-08-09T00:45:54.110Z,19.65
2022-08-09T00:48:21.560Z,19.39
2022-08-09T00:50:52.208Z,19.31
2022-08-09T00:53:24.240Z,19.38
2022-08-09T00:55:54.348Z,19.47
2022-08-09T00:58:33.153Z,19.48
2022-08-09T01:01:11.158Z,19.36
2022-08-09T01:03:56.686Z,18.87
2022-08-09T01:06:54.638Z,18.96
2022-08-09T01:09:36.512Z,19.02
2022-08-09T01:12:29.666Z,19.08
2022-08-09T01:15:16.640Z,19.01
2022-08-09T01:17:57.703Z,19.05
2022-08-09T01:20:39.931Z,19.03
2022-08-09T01:24:00.638Z,18.93
2022-08-09T01:27:02.799Z,18.91
2022-08-09T01:32:54.700Z,18.69
2022-08-09T01:35:42.533Z,18.74
2022-08-09T01:38:15.765Z,18.63
2022-08-09T01:41:04.797Z,18.27
2022-08-09T01:43:50.493Z,18.07
2022-08-09T01:46:24.679Z,18.07
2022-08-09T01:49:14.715Z,17.99
2022-08-09T01:51:54.332Z,17.97
2022-08-09T01:54:32.494Z,18.17
2022-08-09T01:57:20.491Z,18.13
2022-08-09T01:59:53.480Z,18.07
2022-08-09T02:02:33.012Z,18.15
2022-08-09T02:05:15.205Z,18.30
2022-08-09T02:08:38.550Z,18.29
2022-08-09T02:10:51.282Z,18.44
2022-08-09T02:13:26.157Z,18.51
2022-08-09T02:16:20.517Z,18.51
2022-08-09T02:19:01.900Z,18.40
2022-08-09T02:21:38.356Z,18.26
2022-08-09T02:24:26.349Z,18.21
2022-08-09T02:27:01.375Z,17.90
2022-08-09T02:29:37.225Z,17.75
2022-08-09T02:32:10.921Z,17.61
2022-08-09T02:34:51.863Z,17.53
2022-08-09T02:37:31.802Z,17.32
2022-08-09T02:40:12.496Z,17.20
2022-08-09T02:42:45.925Z,17.25
2022-08-09T02:45:26.598Z,17.41
2022-08-09T02:48:03.373Z,17.44
2022-08-09T02:50:37.967Z,17.45
2022-08-09T02:53:26.328Z,17.40
2022-08-09T02:55:59.074Z,17.42
2022-08-09T02:58:37.468Z,17.38
2022-08-09T03:01:11.011Z,17.28
2022-08-09T03:04:17.193Z,17.29
2022-08-09T03:06:36.247Z,17.27
2022-08-09T03:09:07.378Z,17.23
2022-08-09T03:12:05.765Z,16.70
2022-08-09T03:14:28.467Z,16.67
2022-08-09T03:16:58.726Z,16.74
2022-08-09T03:19:52.487Z,16.78
2022-08-09T03:22:41.480Z,16.92
2022-08-09T03:25:26.365Z,17.07
2022-08-09T03:27:56.866Z,17.16
2022-08-09T03:30:32.953Z,17.06
2022-08-09T03:33:05.739Z,16.75
2022-08-09T03:36:12.737Z,16.74
2022-08-09T03:38:34.874Z,16.62
2022-08-09T03:41:02.837Z,16.44
2022-08-09T03:43:31.966Z,16.49
2022-08-09T03:46:04.918Z,16.61
2022-08-09T03:48:54.971Z,16.57
2022-08-09T03:51:43.882Z,16.85
2022-08-09T03:54:14.496Z,16.92
2022-08-09T03:56:42.795Z,16.94
2022-08-09T03:59:20.800Z,16.82
2022-08-09T04:01:56.458Z,16.86
2022-08-09T04:04:27.525Z,16.88
2022-08-09T04:07:05.310Z,16.93
2022-08-09T04:09:48.170Z,16.97
2022-08-09T04:12:44.938Z,17.03
2022-08-09T04:15:29.553Z,17.03
2022-08-09T04:18:01.567Z,17.10
2022-08-09T04:20:28.960Z,17.15
2022-08-09T04:22:57.941Z,17.26
2022-08-09T04:25:26.421Z,17.35
2022-08-09T04:27:53.490Z,17.38
2022-08-09T04:30:28.804Z,17.55
2022-08-09T04:32:57.710Z,17.80
2022-08-09T04:35:24.730Z,18.01
2022-08-09T04:37:57.911Z,18.27
2022-08-09T04:40:36.168Z,18.58
2022-08-09T04:43:04.069Z,18.81
2022-08-09T04:45:36.253Z,18.94
2022-08-09T04:48:19.598Z,18.94
2022-08-09T04:50:46.587Z,19.15
2022-08-09T04:53:18.846Z,19.43
2022-08-09T04:55:58.762Z,19.73
2022-08-09T04:58:27.688Z,20.16
2022-08-09T05:00:55.127Z,20.77
2022-08-09T05:03:40.035Z,21.43
2022-08-09T05:06:10.224Z,22.00
2022-08-09T05:08:47.670Z,22.39
2022-08-09T05:11:15.428Z,22.74
2022-08-09T05:13:43.832Z,23.33
2022-08-09T05:16:11.057Z,23.45
2022-08-09T05:18:58.730Z,23.60
2022-08-09T05:21:29.872Z,23.86
2022-08-09T05:24:01.911Z,24.23
2022-08-09T05:26:37.192Z,24.47
2022-08-09T05:29:17.544Z,24.81
2022-08-09T05:31:57.415Z,25.52
2022-08-09T05:34:30.578Z,25.47
2022-08-09T05:37:05.273Z,26.07
2022-08-09T05:39:46.943Z,26.69
2022-08-09T05:42:17.692Z,26.94
2022-08-09T05:44:50.992Z,27.36
2022-08-09T05:47:18.753Z,27.78
2022-08-09T05:50:29.895Z,28.06
2022-08-09T05:52:33.095Z,28.65
2022-08-09T05:55:03.006Z,29.02
2022-08-09T05:57:50.718Z,29.22
2022-08-09T06:00:22.284Z,29.41
2022-08-09T06:02:54.145Z,29.96
2022-08-09T06:05:31.306Z,30.32
2022-08-09T06:08:10.950Z,30.70
2022-08-09T06:10:40.129Z,31.06
2022-08-09T06:13:18.795Z,31.22
2022-08-09T06:15:51.008Z,31.62
2022-08-09T06:18:25.159Z,32.13
2022-08-09T06:21:08.801Z,32.42
2022-08-09T06:23:55.655Z,32.40
2022-08-09T06:26:30.021Z,31.70
2022-08-09T06:29:00.662Z,31.52
2022-08-09T06:31:30.607Z,31.31
2022-08-09T06:33:58.968Z,31.69
2022-08-09T06:36:27.158Z,32.39
2022-08-09T06:38:54.659Z,31.76
2022-08-09T06:42:07.479Z,32.15
2022-08-09T06:44:18.226Z,33.34
2022-08-09T06:46:45.665Z,32.80
2022-08-09T06:49:12.858Z,33.25
2022-08-09T06:51:50.019Z,33.97
2022-08-09T06:54:18.157Z,34.04
2022-08-09T06:56:48.605Z,33.80
2022-08-09T07:00:54.464Z,34.19
2022-08-09T07:02:04.566Z,35.08
2022-08-09T07:04:32.709Z,35.68
2022-08-09T07:06:59.935Z,35.54
2022-08-09T07:09:55.041Z,35.72
2022-08-09T07:12:18.004Z,36.48
2022-08-09T07:14:51.444Z,36.40
2022-08-09T07:17:21.451Z,35.94
2022-08-09T07:19:50.948Z,35.81
2022-08-09T07:22:34.312Z,36.83
2022-08-09T07:25:05.467Z,36.36
2022-08-09T07:27:42.444Z,35.04
2022-08-09T07:30:21.760Z,35.22
2022-08-09T07:32:51.806Z,34.74
2022-08-09T07:35:19.450Z,35.13
2022-08-09T07:37:48.013Z,36.03
2022-08-09T07:40:20.691Z,36.46
2022-08-09T07:42:58.600Z,36.20
2022-08-09T07:45:38.028Z,36.32
2022-08-09T07:48:28.898Z,36.53
2022-08-09T07:51:09.802Z,37.06
2022-08-09T07:54:04.228Z,37.60
2022-08-09T07:56:31.233Z,37.68
2022-08-09T07:58:59.836Z,37.62
2022-08-09T08:01:33.094Z,37.62
2022-08-09T08:04:02.259Z,38.11
2022-08-09T08:06:31.645Z,38.17
2022-08-09T08:09:04.475Z,38.32
2022-08-09T08:12:09.714Z,37.31
2022-08-09T08:14:21.163Z,36.92
2022-08-09T08:17:07.394Z,36.08
2022-08-09T08:19:36.317Z,35.26
2022-08-09T08:22:05.007Z,34.85
2022-08-09T08:24:40.143Z,34.17
2022-08-09T08:27:44.696Z,34.08
2022-08-09T08:30:18.422Z,34.13
2022-08-09T08:32:53.570Z,33.44
2022-08-09T08:35:22.162Z,33.15
2022-08-09T08:37:59.869Z,32.64
2022-08-09T08:40:33.162Z,32.83
2022-08-09T08:43:03.296Z,33.08
2022-08-09T08:45:51.613Z,32.88
2022-08-09T08:48:29.224Z,32.94
2022-08-09T08:50:58.807Z,32.99
2022-08-09T08:53:32.303Z,33.01
2022-08-09T08:56:05.201Z,33.13
2022-08-09T08:58:36.120Z,33.32
2022-08-09T09:01:08.901Z,33.38
2022-08-09T09:03:50.596Z,33.40
2022-08-09T09:06:19.326Z,33.15
2022-08-09T09:08:52.531Z,33.07
2022-08-09T09:11:20.657Z,33.31
2022-08-09T09:13:57.274Z,33.41
2022-08-09T09:16:31.061Z,32.92
2022-08-09T09:19:36.508Z,33.14
2022-08-09T09:22:05.237Z,33.36
2022-08-09T09:24:38.798Z,33.44
2022-08-09T09:27:09.531Z,33.41
2022-08-09T09:30:28.902Z,33.26
2022-08-09T09:33:02.506Z,33.61
2022-08-09T09:36:02.382Z,33.82
2022-08-09T09:38:46.438Z,32.96
2022-08-09T09:41:33.094Z,29.81
2022-08-09T09:44:12.345Z,29.50
2022-08-09T09:46:50.735Z,29.44
2022-08-09T09:49:49.732Z,28.58
2022-08-09T09:52:35.730Z,28.44
2022-08-09T09:55:28.743Z,28.62
2022-08-09T09:58:02.195Z,28.42
2022-08-09T10:00:32.395Z,28.25
2022-08-09T10:03:11.512Z,28.37
2022-08-09T10:06:03.262Z,28.63
2022-08-09T10:08:31.139Z,28.00
2022-08-09T10:12:00.495Z,28.06
2022-08-09T10:14:37.482Z,28.30
2022-08-09T10:17:39.110Z,29.21
2022-08-09T10:20:00.483Z,30.38
2022-08-09T10:22:35.745Z,30.13
2022-08-09T10:25:11.213Z,29.33
2022-08-09T10:27:45.376Z,29.61
2022-08-09T10:34:04.848Z,28.58
2022-08-09T10:36:02.601Z,28.42
2022-08-09T10:38:55.400Z,29.15
2022-08-09T10:41:20.497Z,29.78
2022-08-09T10:44:01.201Z,30.54
2022-08-09T10:47:03.993Z,31.10
2022-08-09T10:50:03.350Z,31.80
2022-08-09T10:53:03.953Z,31.61
2022-08-09T10:55:54.937Z,32.82
2022-08-09T10:58:30.902Z,31.77
2022-08-09T11:03:02.388Z,30.76
2022-08-09T11:04:19.903Z,30.66
2022-08-09T11:07:57.671Z,30.43
2022-08-09T11:10:57.790Z,30.21
2022-08-09T11:13:53.813Z,30.16
2022-08-09T11:16:38.363Z,29.93
2022-08-09T11:19:10.073Z,31.23
2022-08-09T11:21:57.440Z,32.88
2022-08-09T11:25:05.032Z,33.74
2022-08-09T11:28:05.017Z,30.77
2022-08-09T11:30:35.973Z,30.88
2022-08-09T11:33:10.712Z,30.29
2022-08-09T11:35:49.468Z,30.46
2022-08-09T11:38:22.261Z,30.57
2022-08-09T11:40:54.734Z,30.13
2022-08-09T11:48:26.178Z,31.52
2022-08-09T11:51:21.342Z,31.90
2022-08-09T11:54:14.403Z,32.17
2022-08-09T11:56:48.925Z,31.87
2022-08-09T11:59:30.184Z,31.46
2022-08-09T12:02:37.291Z,30.89
2022-08-09T12:05:07.160Z,30.14
2022-08-09T12:08:35.114Z,29.86
2022-08-09T12:11:02.136Z,29.46
2022-08-09T12:14:10.581Z,29.45
2022-08-09T12:16:38.187Z,29.77
2022-08-09T12:19:08.325Z,29.21
2022-08-09T12:21:48.568Z,28.96
2022-08-09T12:24:25.166Z,28.97
2022-08-09T12:31:59.433Z,29.51
2022-08-09T12:34:09.887Z,29.81
2022-08-09T12:40:59.286Z,29.46
2022-08-09T12:48:27.905Z,29.23
2022-08-09T12:50:59.802Z,29.34
2022-08-09T12:54:00.713Z,29.26
2022-08-09T12:56:56.722Z,29.47
2022-08-09T12:59:24.708Z,29.55
2022-08-09T13:02:10.704Z,29.60
2022-08-09T13:04:59.494Z,29.52
2022-08-09T13:07:50.971Z,29.30
2022-08-09T13:10:16.650Z,29.27
2022-08-09T13:13:10.211Z,29.36
2022-08-09T13:15:35.856Z,29.49
2022-08-09T13:18:05.881Z,29.69
2022-08-09T13:22:33.731Z,29.62
2022-08-09T13:24:15.623Z,29.34
2022-08-09T13:26:36.497Z,29.22
2022-08-09T13:29:13.265Z,29.27
2022-08-09T13:32:20.024Z,29.47
2022-08-09T13:34:46.188Z,29.66
2022-08-09T13:37:13.443Z,29.77
2022-08-09T13:41:56.539Z,29.79
2022-08-09T13:42:40.640Z,29.86
2022-08-09T13:45:13.027Z,29.44
2022-08-09T13:47:49.138Z,29.19
2022-08-09T13:50:31.033Z,29.19
2022-08-09T13:52:59.197Z,29.36
2022-08-09T13:55:29.039Z,29.50
2022-08-09T13:57:58.344Z,29.69
2022-08-09T14:00:29.700Z,29.63
2022-08-09T14:03:57.800Z,29.70
2022-08-09T14:05:56.526Z,29.57
2022-08-09T14:08:30.329Z,29.55
2022-08-09T14:10:57.830Z,29.44
2022-08-09T14:13:28.221Z,29.26
2022-08-09T14:16:20.226Z,29.47
2022-08-09T14:18:58.172Z,29.57
2022-08-09T14:21:29.182Z,29.68
2022-08-09T14:23:57.507Z,29.82
2022-08-09T14:26:32.415Z,29.73
2022-08-09T14:29:03.595Z,29.89
2022-08-09T14:31:50.209Z,29.93
2022-08-09T14:34:30.798Z,29.93
2022-08-09T14:37:00.509Z,29.65
2022-08-09T14:39:46.157Z,29.69
2022-08-09T14:42:29.104Z,29.84
2022-08-09T14:45:16.342Z,29.92
2022-08-09T14:47:57.861Z,29.98
2022-08-09T14:50:31.077Z,30.05
2022-08-09T14:52:59.869Z,29.92
2022-08-09T14:55:29.205Z,29.94
2022-08-09T14:57:59.405Z,29.94
2022-08-09T15:00:27.013Z,29.67
2022-08-09T15:02:58.549Z,29.73
2022-08-09T15:05:27.211Z,29.82
2022-08-09T15:07:55.935Z,29.93
2022-08-09T15:10:25.108Z,29.79
2022-08-09T15:12:52.336Z,29.62
2022-08-09T15:15:20.150Z,29.71
2022-08-09T15:17:52.576Z,29.68
2022-08-09T15:21:57.106Z,29.69
2022-08-09T15:24:01.528Z,29.61
2022-08-09T15:25:56.984Z,29.49
2022-08-09T15:28:28.429Z,29.68
2022-08-09T15:31:10.320Z,29.69
2022-08-09T15:34:17.514Z,29.75
2022-08-09T15:36:31.561Z,29.78
2022-08-09T15:38:59.863Z,29.84
2022-08-09T15:41:31.684Z,29.72
2022-08-09T15:43:59.944Z,29.61
2022-08-09T15:46:32.589Z,29.57
2022-08-09T15:49:22.558Z,29.81
2022-08-09T15:52:03.773Z,29.71
2022-08-09T15:54:48.369Z,29.73
2022-08-09T15:57:19.191Z,29.68
2022-08-09T16:00:04.123Z,29.64
2022-08-09T16:02:31.629Z,29.73
2022-08-09T16:04:58.504Z,29.79
2022-08-09T16:07:30.823Z,29.68
2022-08-09T16:10:11.198Z,29.74
2022-08-09T16:12:50.622Z,29.65
2022-08-09T16:16:10.541Z,29.65
2022-08-09T16:18:07.693Z,29.63
2022-08-09T16:20:35.649Z,29.56
2022-08-09T16:23:06.371Z,29.49
2022-08-09T16:25:39.476Z,29.62
2022-08-09T16:28:08.225Z,29.64
2022-08-09T16:30:40.953Z,29.50
2022-08-09T16:33:12.115Z,29.56
2022-08-09T16:35:56.351Z,29.57
2022-08-09T16:38:27.261Z,29.57
2022-08-09T16:40:54.255Z,29.51
2022-08-09T16:43:22.749Z,29.49
2022-08-09T16:45:53.725Z,29.53
2022-08-09T16:48:38.160Z,29.50
2022-08-09T16:51:14.301Z,29.38
2022-08-09T16:54:16.082Z,29.37
2022-08-09T16:56:31.085Z,29.38
2022-08-09T16:58:59.181Z,29.35
2022-08-09T17:01:28.308Z,29.30
2022-08-09T17:04:01.709Z,29.28
2022-08-09T17:06:33.308Z,29.27
2022-08-09T17:09:12.173Z,29.22
2022-08-09T17:11:52.665Z,29.26
2022-08-09T17:14:28.162Z,29.22
2022-08-09T17:16:59.654Z,29.18
2022-08-09T17:20:05.123Z,29.12
2022-08-09T17:22:24.856Z,29.13
2022-08-09T17:25:10.179Z,29.10
2022-08-09T17:27:49.102Z,29.09
2022-08-09T17:30:16.877Z,29.02
2022-08-09T17:32:47.408Z,29.08
2022-08-09T17:35:14.581Z,29.05
2022-08-09T17:38:02.150Z,28.96
2022-08-09T17:40:34.701Z,28.86
2022-08-09T17:43:33.154Z,28.90
2022-08-09T17:46:03.202Z,28.90
2022-08-09T17:48:34.444Z,28.81
2022-08-09T17:51:09.564Z,28.82
2022-08-09T17:53:51.746Z,28.75
2022-08-09T17:56:27.668Z,28.77
2022-08-09T17:59:03.307Z,28.72
2022-08-09T18:01:57.972Z,28.65
2022-08-09T18:04:24.695Z,28.58
2022-08-09T18:06:54.766Z,28.59
2022-08-09T18:09:23.765Z,28.54
2022-08-09T18:12:14.978Z,28.48
2022-08-09T18:14:49.648Z,28.43
2022-08-09T18:17:27.046Z,28.38
2022-08-09T18:20:54.252Z,28.30
2022-08-09T18:22:56.378Z,28.22
2022-08-09T18:25:50.052Z,28.12
2022-08-09T18:31:10.590Z,28.02
2022-08-09T18:33:37.641Z,28.01
2022-08-09T18:36:09.194Z,27.91
2022-08-09T18:38:56.255Z,27.86
2022-08-09T18:41:28.142Z,27.77
2022-08-09T18:43:56.175Z,27.73
2022-08-09T18:46:47.436Z,27.69
2022-08-09T18:49:10.416Z,27.53
2022-08-09T18:51:38.122Z,27.49
2022-08-09T18:54:08.549Z,27.38
2022-08-09T18:56:45.020Z,27.37
2022-08-09T18:59:22.669Z,27.29
2022-08-09T19:01:52.488Z,27.22
2022-08-09T19:04:34.697Z,27.12
2022-08-09T19:07:02.834Z,26.98
2022-08-09T19:10:14.927Z,26.88
2022-08-09T19:12:41.825Z,26.76
2022-08-09T19:15:19.544Z,26.72
2022-08-09T19:17:56.449Z,26.69
2022-08-09T19:20:25.871Z,26.57
2022-08-09T19:22:54.379Z,26.53
2022-08-09T19:25:41.378Z,26.50
2022-08-09T19:28:13.402Z,26.42
2022-08-09T19:30:44.511Z,26.39
2022-08-09T19:33:19.053Z,26.29
2022-08-09T19:35:57.149Z,26.18
2022-08-09T19:38:26.532Z,26.15
2022-08-09T19:40:54.127Z,26.13
2022-08-09T19:44:00.592Z,26.08
2022-08-09T19:46:14.763Z,26.03
2022-08-09T19:49:01.005Z,25.99
2022-08-09T19:51:30.910Z,25.96
2022-08-09T19:53:58.600Z,25.89
2022-08-09T19:56:28.809Z,25.85
2022-08-09T19:59:39.992Z,25.85
2022-08-09T20:01:52.506Z,25.85
2022-08-09T20:04:37.323Z,25.75
2022-08-09T20:07:08.189Z,25.76
2022-08-09T20:09:43.773Z,25.71
2022-08-09T20:12:29.802Z,25.63
2022-08-09T20:14:58.970Z,25.59
2022-08-09T20:17:31.032Z,25.51
2022-08-09T20:20:15.563Z,25.48
2022-08-09T20:22:46.286Z,25.47
2022-08-09T20:25:13.513Z,25.42
2022-08-09T20:27:50.173Z,25.41
2022-08-09T20:30:21.630Z,25.34
2022-08-09T20:32:52.601Z,25.22
2022-08-09T20:35:20.254Z,25.25
2022-08-09T20:38:20.731Z,25.22
2022-08-09T20:40:36.613Z,25.08
2022-08-09T20:43:18.383Z,25.09
2022-08-09T20:46:00.403Z,25.14
2022-08-09T20:48:42.015Z,25.06
2022-08-09T20:51:19.091Z,25.00
2022-08-09T20:53:46.701Z,24.89
2022-08-09T20:56:21.271Z,24.82
2022-08-09T20:58:50.525Z,24.80
2022-08-09T21:01:34.726Z,24.76
2022-08-09T21:05:52.139Z,24.75
2022-08-09T21:06:58.710Z,24.69
2022-08-09T21:09:41.891Z,24.59
2022-08-09T21:14:41.794Z,23.44
2022-08-09T21:18:11.449Z,23.34
2022-08-09T21:20:22.406Z,23.47
2022-08-09T21:22:58.166Z,23.54
2022-08-09T21:25:27.622Z,23.53
2022-08-09T21:28:07.091Z,23.56
2022-08-09T21:30:40.214Z,23.48
2022-08-09T21:33:08.591Z,23.52
2022-08-09T21:35:41.017Z,23.55
2022-08-09T21:38:30.840Z,23.57
2022-08-09T21:40:58.536Z,23.58
2022-08-09T21:43:46.586Z,23.59
2022-08-09T21:46:13.671Z,23.59
2022-08-09T21:48:42.567Z,23.47
2022-08-09T21:51:18.113Z,23.38
2022-08-09T21:53:53.459Z,23.36
2022-08-09T21:56:33.662Z,23.21
2022-08-09T21:59:07.678Z,23.25
2022-08-09T22:01:59.030Z,23.21
2022-08-09T22:04:21.408Z,23.16
2022-08-09T22:07:10.211Z,23.05
2022-08-09T22:09:43.534Z,23.03
2022-08-09T22:12:24.608Z,23.01
2022-08-09T22:14:57.836Z,22.88
2022-08-09T22:17:25.209Z,22.88
2022-08-09T22:19:58.634Z,22.73
2022-08-09T22:22:28.847Z,22.64
2022-08-09T22:26:06.493Z,22.55
2022-08-09T22:27:42.687Z,22.52
2022-08-09T22:30:11.938Z,22.46
2022-08-09T22:32:38.802Z,22.45
2022-08-09T22:36:01.739Z,22.08
2022-08-09T22:38:03.404Z,21.95
2022-08-09T22:40:35.110Z,21.86
2022-08-09T22:43:16.120Z,21.80
2022-08-09T22:48:13.131Z,21.39
2022-08-09T22:48:37.140Z,21.44
2022-08-09T22:51:10.767Z,21.58
2022-08-09T22:54:02.563Z,21.66
2022-08-09T22:56:33.956Z,21.74
2022-08-09T22:59:05.777Z,21.82
2022-08-09T23:01:49.737Z,21.82
2022-08-09T23:04:17.242Z,21.82
2022-08-09T23:06:44.585Z,21.87
2022-08-09T23:09:13.615Z,21.70
2022-08-09T23:11:41.005Z,21.73
2022-08-09T23:14:10.194Z,21.66
2022-08-09T23:16:44.141Z,21.67
2022-08-09T23:19:11.340Z,21.70
2022-08-09T23:21:39.320Z,21.69
2022-08-09T23:24:07.936Z,21.65
2022-08-09T23:26:38.278Z,21.62
2022-08-09T23:29:06.875Z,21.62
2022-08-09T23:31:34.760Z,21.62
2022-08-09T23:34:02.596Z,21.61
2022-08-09T23:36:31.714Z,21.59
2022-08-09T23:38:58.891Z,21.59
2022-08-09T23:41:27.457Z,21.58
2022-08-09T23:43:59.470Z,21.54
2022-08-09T23:46:28.947Z,21.56
2022-08-09T23:48:56.326Z,21.52
2022-08-09T23:51:23.453Z,21.34
2022-08-09T23:53:52.606Z,21.35
2022-08-09T23:56:52.775Z,21.35
2022-08-09T23:59:11.235Z,21.20
